Latest Weather Observations for Walpole North

IDW60801

Issued at 1:32 pm WST Wednesday 1 April 2015 (issued every 30 minutes, with the page automatically refreshed every 10 minutes)

About weather observations | Map of weather stations | Latest weather observations for WA | Other Formats
Station Details ID: 009998 Name: NORTH WALPOLE Lat: -34.95 Lon: 116.72 Height: 73.0 m
Data from the previous 72 hours. | See also: Recent months at Walpole North
Date/Time
WST
Temp
°C
App
Temp
°C
Dew
Point
Rel
Hum
%
Delta-T
°C
Wind Press
QNH
hPa
Press
MSL
hPa
Rain
since 9 am
mm
Dir
 
Spd
km/h
Gust
km/h
Spd
kts
Gust
kts
01/01:30pm 15.9 12.5 10.7 71 2.8 ESE 19 28 10 15 1026.4 1026.3 0.0
01/01:00pm 15.7 12.7 10.5 71 2.7 ESE 17 26 9 14 1026.7 1026.6 0.0
01/12:30pm 15.8 12.5 10.8 72 2.7 SE 19 26 10 14 1026.9 1026.8 0.0
01/12:00pm 15.5 12.6 11.1 75 2.3 SSE 17 24 9 13 1027.1 1027.0 0.0
01/11:30am 15.8 12.6 11.8 77 2.2 SE 20 28 11 15 1027.4 1027.3 0.0
01/11:00am 14.9 12.5 12.6 86 1.3 ESE 17 26 9 14 1027.5 1027.4 0.0
01/10:30am 13.9 10.7 11.2 84 1.4 ESE 19 28 10 15 1027.6 1027.5 0.0
01/10:00am 15.4 11.6 11.2 76 2.2 SE 22 28 12 15 1027.5 1027.4 0.0
01/09:30am 15.9 12.3 11.7 76 2.3 ESE 22 35 12 19 1027.3 1027.2 0.0
01/09:00am 16.2 13.5 11.6 74 2.5 E 17 22 9 12 1027.0 1026.9 1.6
01/08:30am 16.1 12.7 11.3 73 2.6 ESE 20 30 11 16 1026.7 1026.6 1.6
01/08:00am 15.9 13.5 12.8 82 1.7 ESE 17 20 9 11 1026.4 1026.3 1.6
01/07:30am 14.7 12.7 12.6 87 1.1 ESE 15 20 8 11 1025.9 1025.7 1.6
01/07:00am 14.1 12.4 12.3 89 1.0 SE 13 20 7 11 1025.7 1025.5 1.6
01/06:30am 13.5 13.2 11.4 87 1.1 SE 4 11 2 6 1025.4 1025.2 1.2
01/06:00am 13.3 13.5 10.7 84 1.4 CALM 0 0 0 0 1025.3 1025.1 0.8
01/05:30am 13.8 11.4 10.0 78 2.0 SSE 13 30 7 16 1025.0 1024.8 0.6
01/05:00am 13.6 13.2 8.4 71 2.6 CALM 0 0 0 0 1024.4 1024.2 0.6
01/04:30am 13.9 13.6 8.5 70 2.7 CALM 0 0 0 0 1024.3 1024.1 0.6
01/04:00am 13.7 12.8 7.9 68 2.9 SE 2 7 1 4 1024.1 1023.9 0.6
01/03:30am 14.2 12.3 7.5 64 3.3 SE 7 11 4 6 1023.9 1023.7 0.6
01/03:00am 14.5 12.8 7.5 63 3.4 SE 6 9 3 5 1023.8 1023.6 0.6
01/02:30am 15.2 14.6 7.5 60 3.8 CALM 0 6 0 3 1023.8 1023.6 0.6
01/02:00am 16.1 14.4 8.3 60 3.9 S 7 15 4 8 1023.7 1023.5 0.6
01/01:30am 15.9 14.3 8.9 63 3.6 S 7 17 4 9 1023.6 1023.4 0.6
01/01:00am 16.2 14.3 8.9 62 3.7 SSE 9 17 5 9 1023.4 1023.2 0.6
01/12:30am 16.0 14.1 9.0 63 3.6 S 9 17 5 9 1023.2 1023.0 0.6
01/12:00am 16.1 14.3 9.3 64 3.5 SSE 9 19 5 10 1023.1 1022.9 0.6
 
Date/Time
WST
Temp
°C
App
Temp
°C
Dew
Point
Rel
Hum
%
Delta-T
°C
Wind Press
QNH
hPa
Press
MSL
hPa
Rain
since 9 am
mm
Dir
 
Spd
km/h
Gust
km/h
Spd
kts
Gust
kts
31/11:30pm 15.7 14.2 10.7 72 2.7 SSE 9 15 5 8 1023.1 1022.9 0.6
31/11:00pm 15.8 12.8 10.6 71 2.8 S 17 32 9 17 1023.1 1022.9 0.6
31/10:30pm 15.7 13.3 10.2 70 2.9 SSW 13 22 7 12 1023.0 1022.8 0.6
31/10:00pm 15.4 12.4 9.3 67 3.1 SSW 15 22 8 12 1022.9 1022.7 0.6
31/09:30pm 15.6 12.6 9.1 65 3.3 SSW 15 22 8 12 1022.7 1022.5 0.6
31/09:00pm 15.7 12.7 9.4 66 3.3 SSW 15 24 8 13 1022.5 1022.3 0.6
31/08:30pm 16.0 13.0 10.5 70 2.9 SSW 17 26 9 14 1022.1 1021.9 0.6
31/08:00pm 15.7 14.4 11.1 74 2.5 SSW 9 20 5 11 1021.8 1021.6 0.6
31/07:30pm 14.6 13.6 10.2 75 2.3 SW 6 9 3 5 1021.4 1021.2 0.6
31/07:00pm 14.6 13.2 9.6 72 2.6 SW 7 9 4 5 1021.0 1020.8 0.6
31/06:30pm 15.3 13.6 9.7 69 2.9 SW 9 15 5 8 1020.5 1020.3 0.6
31/06:00pm 16.0 14.3 9.9 67 3.2 SW 9 17 5 9 1020.2 1020.0 0.6
31/05:30pm 16.3 13.8 9.7 65 3.5 SW 13 22 7 12 1020.0 1019.8 0.6
31/05:00pm 16.4 14.4 10.0 66 3.4 SW 11 19 6 10 1019.5 1019.4 0.6
31/04:30pm 16.5 13.9 10.6 68 3.1 SW 15 26 8 14 1019.3 1019.2 0.6
31/04:00pm 16.4 14.5 11.8 74 2.5 SSW 13 22 7 12 1019.1 1019.0 0.6
31/03:30pm 16.6 14.5 13.7 83 1.6 SSW 17 30 9 16 1018.8 1018.6 0.6
31/03:00pm 16.1 15.4 15.3 95 0.5 SSW 13 28 7 15 1018.5 1018.3 0.6
31/02:30pm 16.1 15.6 15.9 99 0.1 SW 13 22 7 12 1018.2 1018.0 0.6
31/02:00pm 16.0 13.7 15.8 99 0.1 SSW 22 35 12 19 1018.1 1017.9 0.4
31/01:30pm 17.0 15.7 16.8 99 0.1 S 19 33 10 18 1017.7 1017.5 0.4
31/01:00pm 17.2 15.6 15.9 92 0.8 SSW 19 30 10 16 1017.6 1017.4 0.4
31/12:30pm 18.6 16.7 15.8 84 1.7 SSW 20 35 11 19 1017.4 1017.2 0.2
31/12:00pm 21.2 19.5 14.8 67 3.8 WSW 17 26 9 14 1017.0 1016.8 0.0
31/11:30am 21.4 19.5 14.3 64 4.2 SW 17 26 9 14 1016.8 1016.6 0.0
31/11:00am 22.2 21.0 15.1 64 4.2 WSW 15 28 8 15 1016.9 1016.7 0.0
31/10:30am 21.0 21.1 16.4 75 2.8 WSW 11 24 6 13 1016.9 1016.7 0.0
31/10:00am 20.6 21.8 19.1 91 0.9 W 11 20 6 11 1017.0 1016.8 0.0
31/09:30am 19.6 20.2 19.4 99 0.1 WNW 15 20 8 11 1017.0 1016.8 0.0
31/09:00am 17.9 19.0 17.9 100 0.0 WNW 9 13 5 7 1017.0 1016.8 0.8
31/08:30am 17.5 18.4 17.5 100 0.0 WNW 9 13 5 7 1016.8 1016.6 0.8
31/08:00am 16.9 17.9 16.9 100 0.0 WNW 7 11 4 6 1016.7 1016.5 0.8
31/07:30am 16.2 18.2 16.0 99 0.1 CALM 0 0 0 0 1016.5 1016.3 0.8
31/07:00am 15.7 16.4 15.5 99 0.1 WNW 6 9 3 5 1016.5 1016.3 0.8
31/06:30am 15.8 16.5 15.6 99 0.1 WNW 6 9 3 5 1016.3 1016.1 0.0
31/06:00am 15.8 15.9 15.6 99 0.1 NNW 9 15 5 8 1016.0 1015.8 0.0
31/05:30am 15.5 17.2 15.3 99 0.1 CALM 0 0 0 0 1015.9 1015.7 0.0
31/05:00am 15.3 16.9 14.8 97 0.3 CALM 0 0 0 0 1015.5 1015.3 0.0
31/04:30am 15.6 16.2 15.3 98 0.2 WNW 6 11 3 6 1015.4 1015.2 0.0
31/04:00am 15.4 16.9 14.6 95 0.5 CALM 0 0 0 0 1015.0 1014.8 0.0
31/03:30am 15.7 17.4 15.2 97 0.3 CALM 0 0 0 0 1015.2 1015.0 0.0
31/03:00am 15.4 17.0 14.8 96 0.3 CALM 0 0 0 0 1015.3 1015.1 0.0
31/02:30am 15.3 16.8 14.7 96 0.3 CALM 0 0 0 0 1015.6 1015.4 0.0
31/02:00am 15.8 17.5 15.2 96 0.3 CALM 0 0 0 0 1015.8 1015.6 0.0
31/01:30am 16.1 17.6 15.8 98 0.2 W 2 11 1 6 1016.1 1015.9 0.0
31/01:00am 14.8 16.1 14.2 96 0.3 CALM 0 0 0 0 1016.0 1015.8 0.0
31/12:30am 14.8 16.1 14.0 95 0.5 CALM 0 0 0 0 1016.0 1015.8 0.0
31/12:00am 15.0 16.3 14.2 95 0.5 CALM 0 0 0 0 1016.1 1015.9 0.0
 
Date/Time
WST
Temp
°C
App
Temp
°C
Dew
Point
Rel
Hum
%
Delta-T
°C
Wind Press
QNH
hPa
Press
MSL
hPa
Rain
since 9 am
mm
Dir
 
Spd
km/h
Gust
km/h
Spd
kts
Gust
kts
30/11:30pm 15.5 17.0 14.7 95 0.5 CALM 0 0 0 0 1016.3 1016.1 0.0
30/11:00pm 15.2 16.5 14.2 94 0.6 CALM 0 0 0 0 1016.3 1016.1 0.0
30/10:30pm 15.3 16.5 13.8 91 0.8 CALM 0 0 0 0 1016.3 1016.1 0.0
30/10:00pm 15.7 17.0 14.1 90 0.9 CALM 0 0 0 0 1016.5 1016.3 0.0
30/09:30pm 15.9 17.1 13.9 88 1.1 CALM 0 0 0 0 1016.5 1016.3 0.0
30/09:00pm 16.1 17.3 13.9 87 1.2 CALM 0 0 0 0 1016.6 1016.4 0.0
30/08:30pm 16.5 17.8 14.2 86 1.3 CALM 0 0 0 0 1016.7 1016.5 0.0
30/08:00pm 16.9 18.2 14.2 84 1.5 CALM 0 0 0 0 1016.5 1016.3 0.0
30/07:30pm 17.2 17.4 14.3 83 1.7 W 6 11 3 6 1016.2 1016.0 0.0
30/07:00pm 17.7 17.5 14.6 82 1.8 WSW 9 15 5 8 1016.0 1015.8 0.0
30/06:30pm 18.2 17.9 14.5 79 2.1 WSW 9 15 5 8 1016.0 1015.8 0.0
30/06:00pm 18.9 17.9 14.6 76 2.5 WSW 13 19 7 10 1016.0 1015.8 0.0
30/05:30pm 19.6 18.8 15.0 75 2.7 W 13 24 7 13 1015.7 1015.5 0.0
30/05:00pm 20.4 18.6 15.6 74 2.9 WSW 19 28 10 15 1015.2 1015.0 0.0
30/04:30pm 21.3 20.3 15.6 70 3.4 W 15 26 8 14 1015.0 1014.8 0.0
30/04:00pm 21.3 20.6 16.3 73 3.0 SW 15 22 8 12 1014.9 1014.7 0.0
30/03:30pm 21.5 20.6 15.8 70 3.4 WSW 15 20 8 11 1014.8 1014.6 0.0
30/03:00pm 23.8 23.4 16.3 63 4.6 SW 13 20 7 11 1014.5 1014.3 0.0
30/02:30pm 22.2 21.2 16.5 70 3.5 SW 17 24 9 13 1014.4 1014.2 0.0
30/02:00pm 24.1 23.8 17.4 66 4.2 SW 15 26 8 14 1014.5 1014.3 0.0
30/01:30pm 24.2 23.8 17.2 65 4.3 WSW 15 26 8 14 1014.5 1014.3 0.0
30/01:00pm 23.6 23.6 17.3 67 3.9 SE 13 22 7 12 1014.6 1014.4 0.0
30/12:30pm 23.9 24.3 17.2 66 4.2 SSE 11 17 6 9 1014.7 1014.5 0.0
30/12:00pm 23.5 24.5 16.8 66 4.1 SSW 7 15 4 8 1015.1 1014.9 0.0
30/11:30am 23.3 23.6 16.1 64 4.4 WSW 9 13 5 7 1015.2 1015.0 0.0
30/11:00am 21.8 21.4 15.2 66 3.9 WNW 11 15 6 8 1015.5 1015.3 0.0
30/10:30am 21.6 21.5 16.1 71 3.3 WNW 11 17 6 9 1016.0 1015.8 0.0
30/10:00am 20.1 20.7 16.7 81 2.1 W 9 15 5 8 1016.3 1016.1 0.0
30/09:30am 18.0 18.5 17.4 96 0.4 NW 11 13 6 7 1016.4 1016.2 0.0
30/09:00am 17.2 17.2 17.2 100 0.0 NW 13 17 7 9 1016.6 1016.4 0.0
30/08:30am 16.3 16.3 16.3 100 0.0 WNW 11 15 6 8 1016.4 1016.2 0.0
30/08:00am 15.2 15.6 15.2 100 0.0 NW 7 13 4 7 1016.5 1016.3 0.0
30/07:30am 14.8 14.6 14.8 100 0.0 NW 9 15 5 8 1016.6 1016.4 0.0
30/07:00am 14.6 14.8 14.6 100 0.0 W 7 11 4 6 1016.5 1016.3 0.0
30/06:30am 14.7 16.2 14.7 100 0.0 CALM 0 0 0 0 1016.3 1016.1 0.0
30/06:00am 14.8 16.4 14.8 100 0.0 CALM 0 0 0 0 1016.2 1016.0 0.0
30/05:30am 15.0 16.6 15.0 100 0.0 CALM 0 0 0 0 1015.9 1015.7 0.0
30/05:00am 15.2 16.1 15.2 100 0.0 NNE 4 9 2 5 1015.8 1015.6 0.0
30/04:30am 15.4 16.0 15.4 100 0.0 NNE 6 9 3 5 1015.9 1015.7 0.0
30/04:00am 15.8 16.0 15.8 100 0.0 NE 9 17 5 9 1016.0 1015.8 0.0
30/03:30am 16.0 16.7 16.0 100 0.0 ENE 7 13 4 7 1016.3 1016.1 0.0
30/03:00am 15.9 16.2 15.9 100 0.0 E 9 13 5 7 1016.5 1016.3 0.0
30/02:30am 15.3 15.9 15.3 100 0.0 E 6 7 3 4 1016.8 1016.6 0.0
30/02:00am 15.1 15.9 14.9 99 0.1 E 4 7 2 4 1017.3 1017.1 0.0
30/01:30am 15.0 15.4 14.8 99 0.1 E 6 7 3 4 1017.4 1017.2 0.0
30/01:00am 15.1 15.6 14.9 99 0.1 E 6 9 3 5 1017.8 1017.6 0.0
30/12:30am 15.4 15.8 15.2 99 0.1 E 7 9 4 5 1018.0 1017.8 0.0
30/12:00am 15.3 15.6 15.1 99 0.1 E 7 9 4 5 1018.2 1018.0 0.0
 
Date/Time
WST
Temp
°C
App
Temp
°C
Dew
Point
Rel
Hum
%
Delta-T
°C
Wind Press
QNH
hPa
Press
MSL
hPa
Rain
since 9 am
mm
Dir
 
Spd
km/h
Gust
km/h
Spd
kts
Gust
kts
29/11:30pm 15.1 15.2 14.5 96 0.3 E 7 9 4 5 1018.5 1018.3 0.0
29/11:00pm 16.0 16.4 15.2 95 0.5 E 7 9 4 5 1018.7 1018.5 0.0
29/10:30pm 16.4 16.8 15.3 93 0.6 E 7 9 4 5 1019.1 1019.0 0.0
29/10:00pm 16.8 17.0 15.7 93 0.6 E 9 11 5 6 1019.3 1019.2 0.0
29/09:30pm 16.4 16.6 14.8 90 0.9 E 7 9 4 5 1019.6 1019.5 0.0
29/09:00pm 16.8 17.1 15.0 89 1.0 ESE 7 9 4 5 1019.7 1019.6 0.0
29/08:30pm 17.3 17.4 15.5 89 1.1 ESE 9 13 5 7 1020.0 1019.8 0.0
29/08:00pm 17.2 17.6 15.4 89 1.1 ESE 7 9 4 5 1019.9 1019.7 0.0
29/07:30pm 17.0 16.9 15.0 88 1.2 ESE 9 13 5 7 1019.5 1019.4 0.0
29/07:00pm 17.2 16.7 14.8 86 1.4 ESE 11 13 6 7 1019.2 1019.1 0.0
29/06:30pm 17.5 17.3 14.8 84 1.6 SE 9 11 5 6 1018.9 1018.7 0.0
29/06:00pm 18.3 18.1 14.8 80 2.0 SSE 9 15 5 8 1018.7 1018.5 0.0
29/05:30pm 19.1 18.9 14.6 75 2.6 SSE 9 15 5 8 1018.4 1018.2 0.0
29/05:00pm 20.0 19.5 15.0 73 2.9 SSE 11 20 6 11 1018.2 1018.0 0.0
29/04:30pm 20.8 20.6 15.8 73 3.0 SSE 11 19 6 10 1018.2 1018.0 0.0
29/04:00pm 21.0 20.7 15.5 71 3.3 SSE 11 19 6 10 1018.4 1018.2 0.0
29/03:30pm 21.3 20.6 15.4 69 3.5 S 13 19 7 10 1018.5 1018.3 0.0
29/03:00pm 21.6 21.1 15.0 66 3.9 SSE 11 20 6 11 1018.5 1018.3 0.0
29/02:30pm 22.0 21.2 15.1 65 4.1 S 13 22 7 12 1018.7 1018.5 0.0
29/02:00pm 22.6 22.8 15.7 65 4.1 S 9 20 5 11 1018.8 1018.6 0.0

Other Formats:

Comma delimited format used in spreadsheet applications
http://www.bom.gov.au/fwo/IDW60801/IDW60801.95647.axf

JavaScript Object Notation format (JSON) in row-major order
http://www.bom.gov.au/fwo/IDW60801/IDW60801.95647.json